createdAt,value
2022-11-04T00:01:33.797Z,60.13
2022-11-04T00:04:01.245Z,60.46
2022-11-04T00:06:30.153Z,60.34
2022-11-04T00:08:58.693Z,60.64
2022-11-04T00:11:43.961Z,60.53
2022-11-04T00:14:11.671Z,60.53
2022-11-04T00:16:56.960Z,60.56
2022-11-04T00:19:24.666Z,60.47
2022-11-04T00:22:25.431Z,60.44
2022-11-04T00:25:10.687Z,60.73
2022-11-04T00:27:55.798Z,60.41
2022-11-04T00:30:23.224Z,60.76
2022-11-04T00:33:08.208Z,60.58
2022-11-04T00:35:35.708Z,60.75
2022-11-04T00:38:04.585Z,60.83
2022-11-04T00:40:32.047Z,60.87
2022-11-04T00:42:59.501Z,60.86
2022-11-04T00:45:26.960Z,61.00
2022-11-04T00:47:54.417Z,60.85
2022-11-04T00:50:21.860Z,60.81
2022-11-04T00:52:49.345Z,60.92
2022-11-04T00:55:18.129Z,60.80
2022-11-04T00:57:45.548Z,60.88
2022-11-04T01:00:14.606Z,60.93
2022-11-04T01:02:42.131Z,60.92
2022-11-04T01:05:10.472Z,60.91
2022-11-04T01:07:43.411Z,60.91
2022-11-04T01:10:11.351Z,60.94
2022-11-04T01:12:40.103Z,61.03
2022-11-04T01:15:08.171Z,61.14
2022-11-04T01:17:35.604Z,61.00
2022-11-04T01:20:03.594Z,60.89
2022-11-04T01:22:31.023Z,60.92
2022-11-04T01:24:58.447Z,61.11
2022-11-04T01:27:25.876Z,60.99
2022-11-04T01:29:54.639Z,60.95
2022-11-04T01:32:22.149Z,61.03
2022-11-04T01:34:49.606Z,61.12
2022-11-04T01:37:17.085Z,60.94
2022-11-04T01:39:44.980Z,61.14
2022-11-04T01:42:14.585Z,61.05
2022-11-04T01:44:54.334Z,61.11
2022-11-04T01:47:24.318Z,60.94
2022-11-04T01:49:53.337Z,61.17
2022-11-04T01:52:23.658Z,61.22
2022-11-04T01:54:51.510Z,61.25
2022-11-04T01:57:20.867Z,60.94
2022-11-04T01:59:48.313Z,61.18
2022-11-04T02:02:17.204Z,61.24
2022-11-04T02:04:44.739Z,60.97
2022-11-04T02:07:12.246Z,61.16
2022-11-04T02:09:40.310Z,61.14
2022-11-04T02:12:25.728Z,61.19
2022-11-04T02:14:53.244Z,61.16
2022-11-04T02:17:36.536Z,60.86
2022-11-04T02:20:18.337Z,61.02
2022-11-04T02:22:58.906Z,60.99
2022-11-04T02:25:36.714Z,61.05
2022-11-04T02:28:26.905Z,60.91
2022-11-04T02:30:55.923Z,61.11
2022-11-04T02:33:23.846Z,60.99
2022-11-04T02:35:55.580Z,60.81
2022-11-04T02:38:34.996Z,61.12
2022-11-04T02:41:07.063Z,60.84
2022-11-04T02:43:36.666Z,61.02
2022-11-04T02:46:06.251Z,60.98
2022-11-04T02:48:36.966Z,61.34
2022-11-04T02:51:05.976Z,61.06
2022-11-04T02:53:35.361Z,61.13
2022-11-04T02:56:03.026Z,61.01
2022-11-04T02:58:32.788Z,60.96
2022-11-04T03:01:00.274Z,60.96
2022-11-04T03:03:29.899Z,60.82
2022-11-04T03:05:57.632Z,60.91
2022-11-04T03:08:27.746Z,60.85
2022-11-04T03:10:55.823Z,61.03
2022-11-04T03:13:25.023Z,61.11
2022-11-04T03:15:54.049Z,61.02
2022-11-04T03:18:24.857Z,60.65
2022-11-04T03:20:53.627Z,60.72
2022-11-04T03:23:21.180Z,60.75
2022-11-04T03:25:49.169Z,60.77
2022-11-04T03:28:23.595Z,60.82
2022-11-04T03:30:52.678Z,60.81
2022-11-04T03:33:21.724Z,60.73
2022-11-04T03:35:49.228Z,60.76
2022-11-04T03:38:18.059Z,60.64
2022-11-04T03:40:45.527Z,60.83
2022-11-04T03:43:15.265Z,60.96
2022-11-04T03:45:42.797Z,60.54
2022-11-04T03:48:10.319Z,60.81
2022-11-04T03:50:41.369Z,60.90
2022-11-04T03:53:09.247Z,60.97
2022-11-04T03:55:42.149Z,61.25
2022-11-04T03:58:11.399Z,61.08
2022-11-04T04:00:41.106Z,60.79
2022-11-04T04:03:09.728Z,61.10
2022-11-04T04:05:39.710Z,61.09
2022-11-04T04:08:13.344Z,60.99
2022-11-04T04:10:43.434Z,60.94
2022-11-04T04:13:13.384Z,60.82
2022-11-04T04:15:44.109Z,60.93
2022-11-04T04:18:13.633Z,60.89
2022-11-04T04:20:41.082Z,60.94
2022-11-04T04:23:30.417Z,61.07
2022-11-04T04:26:18.707Z,61.02
2022-11-04T04:28:46.157Z,60.84
2022-11-04T04:31:13.671Z,61.02
2022-11-04T04:33:41.199Z,61.12
2022-11-04T04:36:08.766Z,60.68
2022-11-04T04:38:53.753Z,60.79
2022-11-04T04:41:41.468Z,60.73
2022-11-04T04:44:30.102Z,60.82
2022-11-04T04:46:57.593Z,60.89
2022-11-04T04:49:34.845Z,60.78
2022-11-04T04:52:02.431Z,60.79
2022-11-04T04:54:29.928Z,60.99
2022-11-04T04:56:58.734Z,60.87
2022-11-04T04:59:26.225Z,61.01
2022-11-04T05:01:53.801Z,60.89
2022-11-04T05:04:21.429Z,60.83
2022-11-04T05:06:48.974Z,60.63
2022-11-04T05:09:16.505Z,60.95
2022-11-04T05:11:43.980Z,60.81
2022-11-04T05:14:12.750Z,60.77
2022-11-04T05:16:41.046Z,60.72
2022-11-04T05:19:08.733Z,60.76
2022-11-04T05:21:36.188Z,60.88
2022-11-04T05:24:03.646Z,60.90
2022-11-04T05:26:31.165Z,60.80
2022-11-04T05:28:58.799Z,60.72
2022-11-04T05:31:28.479Z,60.67
2022-11-04T05:33:55.969Z,60.75
2022-11-04T05:36:23.507Z,60.68
2022-11-04T05:38:51.371Z,60.74
2022-11-04T05:41:25.787Z,60.60
2022-11-04T05:43:53.844Z,60.73
2022-11-04T05:46:21.263Z,60.37
2022-11-04T05:48:50.075Z,60.47
2022-11-04T05:51:18.374Z,60.59
2022-11-04T05:53:45.868Z,60.47
2022-11-04T05:56:13.379Z,60.65
2022-11-04T05:58:40.845Z,60.50
2022-11-04T06:01:15.494Z,60.50
2022-11-04T06:03:43.479Z,60.41
2022-11-04T06:06:12.233Z,60.59
2022-11-04T06:08:44.907Z,60.54
2022-11-04T06:11:12.696Z,60.66
2022-11-04T06:13:40.207Z,60.65
2022-11-04T06:16:08.059Z,60.66
2022-11-04T06:18:35.543Z,60.68
2022-11-04T06:21:24.995Z,60.75
2022-11-04T06:23:52.916Z,60.61
2022-11-04T06:26:25.147Z,60.69
2022-11-04T06:28:54.536Z,60.58
2022-11-04T06:31:22.096Z,60.67
2022-11-04T06:33:49.591Z,60.50
2022-11-04T06:36:17.254Z,60.67
2022-11-04T06:38:46.103Z,60.04
2022-11-04T06:41:14.705Z,60.19
2022-11-04T06:43:42.188Z,60.38
2022-11-04T06:46:27.274Z,60.37
2022-11-04T06:48:54.793Z,60.80
2022-11-04T06:51:22.254Z,60.57
2022-11-04T06:53:51.123Z,60.61
2022-11-04T06:56:18.630Z,60.44
2022-11-04T06:58:48.917Z,60.13
2022-11-04T07:01:21.540Z,60.56
2022-11-04T07:03:49.934Z,60.52
2022-11-04T07:06:17.615Z,60.54
2022-11-04T07:08:45.084Z,60.79
2022-11-04T07:11:13.928Z,60.31
2022-11-04T07:13:41.715Z,60.33
2022-11-04T07:16:09.798Z,60.39
2022-11-04T07:18:37.259Z,60.50
2022-11-04T07:21:09.772Z,60.46
2022-11-04T07:23:37.719Z,60.75
2022-11-04T07:26:06.577Z,60.67
2022-11-04T07:28:35.416Z,60.54
2022-11-04T07:31:03.168Z,60.57
2022-11-04T07:33:30.632Z,60.52
2022-11-04T07:35:58.591Z,60.44
2022-11-04T07:38:26.239Z,60.43
2022-11-04T07:40:53.992Z,60.68
2022-11-04T07:43:21.474Z,60.50
2022-11-04T07:45:59.998Z,60.48
2022-11-04T07:48:27.582Z,60.62
2022-11-04T07:50:56.743Z,60.51
2022-11-04T07:53:24.212Z,60.43
2022-11-04T07:55:51.722Z,60.23
2022-11-04T07:58:19.387Z,60.30
2022-11-04T08:00:46.879Z,60.48
2022-11-04T08:03:15.775Z,60.47
2022-11-04T08:05:43.578Z,60.44
2022-11-04T08:08:11.122Z,60.31
2022-11-04T08:10:38.609Z,60.20
2022-11-04T08:13:06.325Z,60.16
2022-11-04T08:15:36.544Z,60.09
2022-11-04T08:18:04.646Z,60.30
2022-11-04T08:20:33.412Z,60.32
2022-11-04T08:23:00.867Z,60.20
2022-11-04T08:25:28.409Z,60.11
2022-11-04T08:28:00.654Z,59.22
2022-11-04T08:30:28.645Z,58.98
2022-11-04T08:32:56.077Z,59.16
2022-11-04T08:35:23.557Z,59.65
2022-11-04T08:37:52.315Z,60.10
2022-11-04T08:40:19.808Z,60.16
2022-11-04T08:42:47.464Z,60.19
2022-11-04T08:45:14.915Z,60.16
2022-11-04T08:47:42.366Z,60.15
2022-11-04T08:50:11.386Z,60.27
2022-11-04T08:52:38.848Z,60.32
2022-11-04T08:55:09.831Z,60.37
2022-11-04T08:57:37.326Z,60.25
2022-11-04T09:00:06.061Z,60.31
2022-11-04T09:02:33.492Z,60.25
2022-11-04T09:05:01.820Z,60.18
2022-11-04T09:07:29.271Z,59.85
2022-11-04T09:09:56.709Z,59.81
2022-11-04T09:12:25.476Z,59.86
2022-11-04T09:14:53.166Z,59.82
2022-11-04T09:17:20.621Z,59.95
2022-11-04T09:19:48.057Z,60.08
2022-11-04T09:22:15.503Z,60.08
2022-11-04T09:24:42.966Z,59.90
2022-11-04T09:27:10.433Z,60.04
2022-11-04T09:29:39.210Z,59.85
2022-11-04T09:32:06.973Z,60.06
2022-11-04T09:34:34.623Z,60.06
2022-11-04T09:37:02.100Z,60.17
2022-11-04T09:39:29.559Z,59.97
2022-11-04T09:42:06.328Z,60.17
2022-11-04T09:44:59.661Z,60.30
2022-11-04T09:47:26.665Z,60.24
2022-11-04T09:49:57.474Z,60.24
2022-11-04T09:52:26.364Z,60.11
2022-11-04T09:54:55.814Z,60.26
2022-11-04T09:57:24.239Z,60.34
2022-11-04T09:59:51.701Z,60.32
2022-11-04T10:02:31.570Z,60.19
2022-11-04T10:05:04.669Z,60.23
2022-11-04T10:07:43.800Z,60.35
2022-11-04T10:10:13.966Z,60.29
2022-11-04T10:12:43.871Z,60.19
2022-11-04T10:15:32.495Z,60.25
2022-11-04T10:18:07.604Z,60.18
2022-11-04T10:20:48.716Z,60.22
2022-11-04T10:23:22.142Z,60.13
2022-11-04T10:25:50.436Z,60.32
2022-11-04T10:28:19.286Z,60.26
2022-11-04T10:30:47.932Z,60.18
2022-11-04T10:33:23.527Z,59.96
2022-11-04T10:35:51.853Z,60.13
2022-11-04T10:38:20.706Z,60.10
2022-11-04T10:40:49.686Z,59.98
2022-11-04T10:43:19.004Z,60.14
2022-11-04T10:45:51.370Z,60.04
2022-11-04T10:48:22.303Z,60.11
2022-11-04T10:50:51.946Z,60.13
2022-11-04T10:53:19.892Z,60.00
2022-11-04T10:55:50.573Z,60.04
2022-11-04T10:58:21.672Z,60.15
2022-11-04T11:00:50.309Z,60.00
2022-11-04T11:03:29.896Z,60.05
2022-11-04T11:06:11.998Z,59.94
2022-11-04T11:08:39.455Z,59.64
2022-11-04T11:11:07.360Z,59.96
2022-11-04T11:13:36.303Z,59.76
2022-11-04T11:16:09.194Z,59.50
2022-11-04T11:18:38.433Z,59.60
2022-11-04T11:21:08.899Z,59.46
2022-11-04T11:23:39.048Z,59.32
2022-11-04T11:26:07.115Z,59.57
2022-11-04T11:28:38.008Z,59.29
2022-11-04T11:31:08.561Z,59.52
2022-11-04T11:33:37.979Z,59.38
2022-11-04T11:36:11.878Z,59.26
2022-11-04T11:38:39.547Z,59.39
2022-11-04T11:41:24.495Z,59.30
2022-11-04T11:43:52.886Z,59.50
2022-11-04T11:46:22.560Z,59.24
2022-11-04T11:48:52.841Z,59.15
2022-11-04T11:51:29.035Z,59.33
2022-11-04T11:54:03.953Z,59.17
2022-11-04T11:56:52.051Z,59.09
2022-11-04T12:02:24.238Z,59.15
2022-11-04T12:10:50.324Z,59.06
2022-11-04T12:13:24.497Z,58.91
2022-11-04T12:16:06.320Z,58.90
2022-11-04T12:18:43.889Z,58.99
2022-11-04T12:21:15.849Z,59.06
2022-11-04T12:23:47.253Z,58.93
2022-11-04T12:26:18.364Z,58.87
2022-11-04T12:28:53.761Z,58.55
2022-11-04T12:31:25.356Z,58.73
2022-11-04T12:33:58.851Z,58.94
2022-11-04T12:36:33.065Z,58.88
2022-11-04T12:39:11.746Z,58.77
2022-11-04T12:42:06.763Z,58.85
2022-11-04T12:44:34.349Z,58.60
2022-11-04T12:47:08.772Z,58.71
2022-11-04T12:50:04.285Z,58.64
2022-11-04T12:52:59.966Z,58.70
2022-11-04T12:55:33.149Z,58.79
2022-11-04T12:58:04.816Z,58.61
2022-11-04T13:00:32.263Z,58.67
2022-11-04T13:03:02.124Z,58.73
2022-11-04T13:05:35.013Z,58.65
2022-11-04T13:08:13.772Z,58.59
2022-11-04T13:10:44.300Z,58.93
2022-11-04T13:13:12.197Z,58.95
2022-11-04T13:15:44.410Z,58.99
2022-11-04T13:18:13.520Z,58.62
2022-11-04T13:20:44.397Z,58.90
2022-11-04T13:23:17.620Z,58.76
2022-11-04T13:25:45.727Z,58.75
2022-11-04T13:28:13.964Z,58.60
2022-11-04T13:30:45.872Z,58.79
2022-11-04T13:33:15.583Z,58.87
2022-11-04T13:35:47.854Z,58.83
2022-11-04T13:38:18.501Z,58.68
2022-11-04T13:40:50.364Z,58.84
2022-11-04T13:43:38.860Z,58.89
2022-11-04T13:46:08.397Z,58.87
2022-11-04T13:48:37.821Z,58.96
2022-11-04T13:51:06.676Z,58.66
2022-11-04T13:53:46.240Z,58.89
2022-11-04T13:56:33.217Z,58.83
2022-11-04T13:59:05.272Z,58.82
2022-11-04T14:01:33.245Z,58.66
2022-11-04T14:04:07.008Z,58.58
2022-11-04T14:06:51.830Z,58.63
2022-11-04T14:09:55.480Z,58.52
2022-11-04T14:12:32.477Z,58.65
2022-11-04T14:15:10.625Z,58.83
2022-11-04T14:18:02.938Z,58.81
2022-11-04T14:20:32.834Z,58.81
2022-11-04T14:23:00.917Z,59.12
2022-11-04T14:25:32.013Z,58.74
2022-11-04T14:28:00.261Z,58.94
2022-11-04T14:30:45.038Z,58.96
2022-11-04T14:33:39.181Z,58.71
2022-11-04T14:36:28.924Z,58.88
2022-11-04T14:38:57.685Z,58.84
2022-11-04T14:41:34.524Z,59.22
2022-11-04T14:44:02.998Z,59.24
2022-11-04T14:46:31.924Z,59.15
2022-11-04T14:49:01.683Z,59.24
2022-11-04T14:51:30.215Z,59.11
2022-11-04T14:54:04.674Z,59.33
2022-11-04T14:56:33.623Z,59.24
2022-11-04T14:59:01.846Z,59.20
2022-11-04T15:01:34.689Z,59.28
2022-11-04T15:04:12.275Z,59.12
2022-11-04T15:06:54.543Z,59.27
2022-11-04T15:09:23.709Z,59.40
2022-11-04T15:12:10.382Z,59.47
2022-11-04T15:14:37.969Z,59.24
2022-11-04T15:17:05.460Z,59.13
2022-11-04T15:19:33.556Z,59.19
2022-11-04T15:22:01.075Z,58.99
2022-11-04T15:24:28.545Z,59.15
2022-11-04T15:27:01.663Z,59.42
2022-11-04T15:29:29.100Z,59.40
2022-11-04T15:31:57.868Z,59.19
2022-11-04T15:34:26.576Z,59.42
2022-11-04T15:36:55.269Z,59.21
2022-11-04T15:39:23.742Z,59.29
2022-11-04T15:42:09.194Z,59.55
2022-11-04T15:44:38.519Z,59.43
2022-11-04T15:47:22.856Z,59.47
2022-11-04T15:49:50.919Z,59.38
2022-11-04T15:52:20.564Z,59.22
2022-11-04T15:54:48.714Z,59.52
2022-11-04T15:57:16.896Z,59.53
2022-11-04T15:59:48.066Z,59.66
2022-11-04T16:02:21.230Z,59.53
2022-11-04T16:05:03.603Z,59.61
2022-11-04T16:07:31.753Z,59.80
2022-11-04T16:09:59.242Z,59.66
2022-11-04T16:12:28.148Z,59.43
2022-11-04T16:14:57.269Z,59.57
2022-11-04T16:17:24.936Z,59.68
2022-11-04T16:19:53.951Z,59.49
2022-11-04T16:22:24.917Z,59.84
2022-11-04T16:24:52.725Z,59.86
2022-11-04T16:27:21.452Z,59.88
2022-11-04T16:29:53.364Z,59.75
2022-11-04T16:32:26.577Z,59.69
2022-11-04T16:34:57.388Z,59.63
2022-11-04T16:37:25.740Z,59.74
2022-11-04T16:39:53.211Z,59.81
2022-11-04T16:42:20.731Z,59.77
2022-11-04T16:44:49.396Z,59.77
2022-11-04T16:47:17.061Z,59.89
2022-11-04T16:49:45.804Z,59.77
2022-11-04T16:52:15.280Z,60.02
2022-11-04T16:54:42.807Z,59.83
2022-11-04T16:57:13.138Z,59.85
2022-11-04T16:59:40.968Z,59.97
2022-11-04T17:02:21.024Z,59.92
2022-11-04T17:04:49.778Z,59.98
2022-11-04T17:07:17.224Z,59.97
2022-11-04T17:09:44.692Z,59.92
2022-11-04T17:12:12.190Z,59.92
2022-11-04T17:14:39.737Z,59.89
2022-11-04T17:17:08.099Z,59.82
2022-11-04T17:19:35.537Z,59.87
2022-11-04T17:22:05.350Z,59.80
2022-11-04T17:24:32.821Z,60.19
2022-11-04T17:27:00.803Z,59.99
2022-11-04T17:29:29.792Z,60.13
2022-11-04T17:31:57.253Z,60.04
2022-11-04T17:34:25.876Z,60.38
2022-11-04T17:36:53.535Z,60.20
2022-11-04T17:39:22.365Z,60.26
2022-11-04T17:42:07.773Z,60.37
2022-11-04T17:44:35.238Z,60.23
2022-11-04T17:47:02.725Z,60.38
2022-11-04T17:49:30.732Z,60.21
2022-11-04T17:52:00.544Z,60.21
2022-11-04T17:54:30.154Z,60.36
2022-11-04T17:56:57.698Z,60.37
2022-11-04T17:59:25.196Z,60.29
2022-11-04T18:01:52.760Z,60.21
2022-11-04T18:04:21.621Z,60.09
2022-11-04T18:06:49.401Z,60.28
2022-11-04T18:09:17.109Z,60.42
2022-11-04T18:12:03.296Z,60.45
2022-11-04T18:14:30.790Z,60.29
2022-11-04T18:16:58.413Z,60.36
2022-11-04T18:19:27.074Z,60.29
2022-11-04T18:21:54.537Z,60.65
2022-11-04T18:24:22.089Z,60.60
2022-11-04T18:26:50.943Z,60.51
2022-11-04T18:29:18.468Z,60.59
2022-11-04T18:31:49.410Z,60.40
2022-11-04T18:34:19.258Z,60.52
2022-11-04T18:36:46.845Z,60.60
2022-11-04T18:39:15.013Z,60.40
2022-11-04T18:41:42.550Z,60.67
2022-11-04T18:44:13.834Z,60.62
2022-11-04T18:46:41.286Z,60.63
2022-11-04T18:49:08.743Z,60.48
2022-11-04T18:51:36.280Z,60.57
2022-11-04T18:54:04.271Z,60.58
2022-11-04T18:56:31.811Z,60.75
2022-11-04T18:58:59.226Z,60.72
2022-11-04T19:01:29.201Z,60.73
2022-11-04T19:03:56.636Z,60.72
2022-11-04T19:06:25.066Z,60.81
2022-11-04T19:08:52.875Z,60.66
2022-11-04T19:11:21.410Z,60.74
2022-11-04T19:13:51.067Z,60.53
2022-11-04T19:16:18.530Z,60.76
2022-11-04T19:18:49.210Z,60.69
2022-11-04T19:21:18.564Z,60.60
2022-11-04T19:23:46.670Z,60.59
2022-11-04T19:26:15.373Z,60.60
2022-11-04T19:28:48.332Z,60.55
2022-11-04T19:31:17.793Z,60.71
2022-11-04T19:33:46.720Z,60.78
2022-11-04T19:36:14.758Z,60.80
2022-11-04T19:38:43.581Z,60.78
2022-11-04T19:41:34.141Z,60.42
2022-11-04T19:44:01.021Z,60.64
2022-11-04T19:46:28.522Z,60.75
2022-11-04T19:48:58.030Z,60.67
2022-11-04T19:51:31.594Z,60.66
2022-11-04T19:53:59.566Z,60.68
2022-11-04T19:56:27.046Z,60.80
2022-11-04T19:58:54.531Z,60.78
2022-11-04T20:01:22.118Z,60.53
2022-11-04T20:03:50.339Z,60.71
2022-11-04T20:06:19.204Z,60.64
2022-11-04T20:08:48.739Z,60.55
2022-11-04T20:11:16.339Z,60.55
2022-11-04T20:13:47.074Z,60.65
2022-11-04T20:16:16.949Z,60.77
2022-11-04T20:18:44.659Z,60.75
2022-11-04T20:21:12.314Z,60.55
2022-11-04T20:23:41.151Z,60.66
2022-11-04T20:26:10.512Z,60.95
2022-11-04T20:28:38.401Z,60.61
2022-11-04T20:31:12.776Z,60.60
2022-11-04T20:33:40.265Z,60.71
2022-11-04T20:36:08.395Z,60.73
2022-11-04T20:38:36.105Z,60.72
2022-11-04T20:41:06.188Z,60.68
2022-11-04T20:43:34.395Z,60.73
2022-11-04T20:46:06.130Z,60.54
2022-11-04T20:48:34.466Z,60.75
2022-11-04T20:51:06.299Z,60.67
2022-11-04T20:53:33.753Z,60.63
2022-11-04T20:56:01.212Z,60.64
2022-11-04T20:58:30.792Z,60.58
2022-11-04T21:01:01.033Z,60.48
2022-11-04T21:03:28.862Z,60.43
2022-11-04T21:05:56.434Z,60.55
2022-11-04T21:08:23.937Z,60.49
2022-11-04T21:10:51.411Z,60.45
2022-11-04T21:13:18.866Z,60.32
2022-11-04T21:15:51.226Z,60.47
2022-11-04T21:18:18.683Z,60.46
2022-11-04T21:20:46.371Z,60.43
2022-11-04T21:23:14.487Z,60.33
2022-11-04T21:25:42.148Z,60.24
2022-11-04T21:28:09.840Z,60.43
2022-11-04T21:30:37.898Z,60.44
2022-11-04T21:33:06.816Z,60.34
2022-11-04T21:35:35.013Z,59.93
2022-11-04T21:38:02.501Z,60.38
2022-11-04T21:40:30.084Z,60.27
2022-11-04T21:42:57.585Z,60.12
2022-11-04T21:45:25.135Z,59.89
2022-11-04T21:47:52.703Z,59.87
2022-11-04T21:50:21.497Z,59.96
2022-11-04T21:52:48.938Z,60.05
2022-11-04T21:55:16.529Z,59.87
2022-11-04T21:57:43.982Z,60.22
2022-11-04T22:00:13.885Z,60.25
2022-11-04T22:02:43.415Z,60.11
2022-11-04T22:05:11.359Z,59.98
2022-11-04T22:08:09.017Z,60.19
2022-11-04T22:10:36.885Z,60.11
2022-11-04T22:13:04.474Z,60.23
2022-11-04T22:15:49.900Z,59.97
2022-11-04T22:18:17.461Z,59.71
2022-11-04T22:20:44.914Z,60.04
2022-11-04T22:23:13.676Z,59.79
2022-11-04T22:25:44.684Z,59.69
2022-11-04T22:28:15.668Z,59.74
2022-11-04T22:30:43.167Z,59.93
2022-11-04T22:33:10.833Z,59.88
2022-11-04T22:35:38.475Z,59.74
2022-11-04T22:38:05.975Z,59.80
2022-11-04T22:40:34.832Z,59.72
2022-11-04T22:43:02.319Z,59.75
2022-11-04T22:45:29.813Z,59.56
2022-11-04T22:47:57.284Z,59.55
2022-11-04T22:50:24.755Z,59.50
2022-11-04T22:52:52.269Z,59.73
2022-11-04T22:55:19.797Z,59.66
2022-11-04T22:57:48.616Z,59.54
2022-11-04T23:00:16.752Z,59.58
2022-11-04T23:02:44.828Z,59.63
2022-11-04T23:05:13.458Z,59.81
2022-11-04T23:07:41.420Z,59.43
2022-11-04T23:10:27.388Z,59.68
2022-11-04T23:13:14.017Z,59.69
2022-11-04T23:15:59.314Z,59.70
2022-11-04T23:18:45.815Z,59.98
2022-11-04T23:21:32.250Z,59.63
2022-11-04T23:24:17.512Z,59.44
2022-11-04T23:26:46.092Z,59.50
2022-11-04T23:29:33.034Z,59.44
2022-11-04T23:34:39.216Z,59.69
2022-11-04T23:37:15.822Z,59.54
2022-11-04T23:39:44.125Z,59.63
2022-11-04T23:42:17.356Z,59.59
2022-11-04T23:45:08.281Z,59.48
2022-11-04T23:47:54.122Z,59.47
2022-11-04T23:50:39.533Z,59.58
2022-11-04T23:53:24.874Z,59.53
2022-11-04T23:56:10.130Z,59.40
2022-11-04T23:58:55.623Z,59.27
